sensor_id;sensor_type;location;lat;lon;timestamp;P1;durP1;ratioP1;P2;durP2;ratioP2
3627;SDS011;1830;49.000;12.074;2022-08-25T00:01:28;16.87;;;13.00;;
3627;SDS011;1830;49.000;12.074;2022-08-25T00:03:56;23.70;;;13.57;;
3627;SDS011;1830;49.000;12.074;2022-08-25T00:06:24;19.07;;;13.73;;
3627;SDS011;1830;49.000;12.074;2022-08-25T00:08:52;14.40;;;12.13;;
3627;SDS011;1830;49.000;12.074;2022-08-25T00:11:24;18.20;;;12.50;;
3627;SDS011;1830;49.000;12.074;2022-08-25T00:13:55;18.87;;;12.87;;
3627;SDS011;1830;49.000;12.074;2022-08-25T00:16:25;14.10;;;12.27;;
3627;SDS011;1830;49.000;12.074;2022-08-25T00:18:54;23.20;;;12.40;;
3627;SDS011;1830;49.000;12.074;2022-08-25T00:21:23;15.73;;;12.77;;
3627;SDS011;1830;49.000;12.074;2022-08-25T00:23:52;18.33;;;12.80;;
3627;SDS011;1830;49.000;12.074;2022-08-25T00:26:20;18.63;;;13.77;;
3627;SDS011;1830;49.000;12.074;2022-08-25T00:28:46;15.73;;;13.77;;
3627;SDS011;1830;49.000;12.074;2022-08-25T00:31:14;17.03;;;14.47;;
3627;SDS011;1830;49.000;12.074;2022-08-25T00:33:42;16.77;;;13.20;;
3627;SDS011;1830;49.000;12.074;2022-08-25T00:36:10;16.67;;;13.70;;
3627;SDS011;1830;49.000;12.074;2022-08-25T00:38:37;18.23;;;13.50;;
3627;SDS011;1830;49.000;12.074;2022-08-25T00:41:06;17.67;;;13.40;;
3627;SDS011;1830;49.000;12.074;2022-08-25T00:43:41;18.97;;;13.50;;
3627;SDS011;1830;49.000;12.074;2022-08-25T00:46:12;17.90;;;13.70;;
3627;SDS011;1830;49.000;12.074;2022-08-25T00:48:42;14.63;;;12.10;;
3627;SDS011;1830;49.000;12.074;2022-08-25T00:51:10;19.10;;;14.63;;
3627;SDS011;1830;49.000;12.074;2022-08-25T00:53:40;16.47;;;13.40;;
3627;SDS011;1830;49.000;12.074;2022-08-25T00:56:09;19.73;;;14.40;;
3627;SDS011;1830;49.000;12.074;2022-08-25T00:58:38;14.93;;;11.60;;
3627;SDS011;1830;49.000;12.074;2022-08-25T01:01:06;15.80;;;13.07;;
3627;SDS011;1830;49.000;12.074;2022-08-25T01:03:33;17.77;;;13.60;;
3627;SDS011;1830;49.000;12.074;2022-08-25T01:06:00;18.30;;;13.53;;
3627;SDS011;1830;49.000;12.074;2022-08-25T01:08:28;17.70;;;13.83;;
3627;SDS011;1830;49.000;12.074;2022-08-25T01:10:58;16.83;;;12.47;;
3627;SDS011;1830;49.000;12.074;2022-08-25T01:13:29;18.23;;;13.63;;
3627;SDS011;1830;49.000;12.074;2022-08-25T01:15:59;16.70;;;13.90;;
3627;SDS011;1830;49.000;12.074;2022-08-25T01:18:26;14.20;;;12.70;;
3627;SDS011;1830;49.000;12.074;2022-08-25T01:20:55;17.00;;;13.40;;
3627;SDS011;1830;49.000;12.074;2022-08-25T01:23:23;16.73;;;13.70;;
3627;SDS011;1830;49.000;12.074;2022-08-25T01:25:52;17.30;;;13.17;;
3627;SDS011;1830;49.000;12.074;2022-08-25T01:28:26;21.77;;;15.13;;
3627;SDS011;1830;49.000;12.074;2022-08-25T01:30:53;16.47;;;13.30;;
3627;SDS011;1830;49.000;12.074;2022-08-25T01:33:20;16.57;;;13.50;;
3627;SDS011;1830;49.000;12.074;2022-08-25T01:35:47;18.33;;;13.27;;
3627;SDS011;1830;49.000;12.074;2022-08-25T01:38:16;22.00;;;13.17;;
3627;SDS011;1830;49.000;12.074;2022-08-25T01:40:45;17.87;;;14.17;;
3627;SDS011;1830;49.000;12.074;2022-08-25T01:43:15;19.83;;;14.37;;
3627;SDS011;1830;49.000;12.074;2022-08-25T01:45:50;17.10;;;13.20;;
3627;SDS011;1830;49.000;12.074;2022-08-25T01:48:17;18.20;;;13.77;;
3627;SDS011;1830;49.000;12.074;2022-08-25T01:50:44;18.23;;;13.83;;
3627;SDS011;1830;49.000;12.074;2022-08-25T01:53:12;17.73;;;13.90;;
3627;SDS011;1830;49.000;12.074;2022-08-25T01:55:47;15.93;;;12.83;;
3627;SDS011;1830;49.000;12.074;2022-08-25T01:58:17;18.83;;;14.40;;
3627;SDS011;1830;49.000;12.074;2022-08-25T02:00:45;18.00;;;14.30;;
3627;SDS011;1830;49.000;12.074;2022-08-25T02:03:12;17.33;;;13.60;;
3627;SDS011;1830;49.000;12.074;2022-08-25T02:05:39;17.20;;;13.87;;
3627;SDS011;1830;49.000;12.074;2022-08-25T02:08:06;18.77;;;14.27;;
3627;SDS011;1830;49.000;12.074;2022-08-25T02:10:34;17.10;;;13.33;;
3627;SDS011;1830;49.000;12.074;2022-08-25T02:13:01;19.83;;;15.40;;
3627;SDS011;1830;49.000;12.074;2022-08-25T02:15:28;18.93;;;14.63;;
3627;SDS011;1830;49.000;12.074;2022-08-25T02:17:55;16.90;;;15.10;;
3627;SDS011;1830;49.000;12.074;2022-08-25T02:20:22;18.80;;;14.63;;
3627;SDS011;1830;49.000;12.074;2022-08-25T02:22:50;18.33;;;14.53;;
3627;SDS011;1830;49.000;12.074;2022-08-25T02:25:17;19.63;;;15.20;;
3627;SDS011;1830;49.000;12.074;2022-08-25T02:27:45;20.37;;;15.40;;
3627;SDS011;1830;49.000;12.074;2022-08-25T02:30:13;20.90;;;15.40;;
3627;SDS011;1830;49.000;12.074;2022-08-25T02:32:40;16.40;;;14.23;;
3627;SDS011;1830;49.000;12.074;2022-08-25T02:35:08;18.83;;;15.23;;
3627;SDS011;1830;49.000;12.074;2022-08-25T02:37:35;22.30;;;16.37;;
3627;SDS011;1830;49.000;12.074;2022-08-25T02:40:02;20.27;;;14.63;;
3627;SDS011;1830;49.000;12.074;2022-08-25T02:42:30;21.70;;;15.10;;
3627;SDS011;1830;49.000;12.074;2022-08-25T02:44:58;21.00;;;15.50;;
3627;SDS011;1830;49.000;12.074;2022-08-25T02:47:25;17.40;;;14.60;;
3627;SDS011;1830;49.000;12.074;2022-08-25T02:49:52;16.87;;;14.20;;
3627;SDS011;1830;49.000;12.074;2022-08-25T02:52:19;22.33;;;16.20;;
3627;SDS011;1830;49.000;12.074;2022-08-25T02:54:46;19.67;;;16.23;;
3627;SDS011;1830;49.000;12.074;2022-08-25T02:57:13;21.50;;;15.80;;
3627;SDS011;1830;49.000;12.074;2022-08-25T02:59:39;22.40;;;17.20;;
3627;SDS011;1830;49.000;12.074;2022-08-25T03:02:07;22.47;;;16.07;;
3627;SDS011;1830;49.000;12.074;2022-08-25T03:04:34;19.60;;;16.47;;
3627;SDS011;1830;49.000;12.074;2022-08-25T03:07:01;23.40;;;17.00;;
3627;SDS011;1830;49.000;12.074;2022-08-25T03:09:29;21.20;;;15.43;;
3627;SDS011;1830;49.000;12.074;2022-08-25T03:11:56;24.33;;;16.80;;
3627;SDS011;1830;49.000;12.074;2022-08-25T03:14:23;23.30;;;17.63;;
3627;SDS011;1830;49.000;12.074;2022-08-25T03:16:49;18.50;;;15.83;;
3627;SDS011;1830;49.000;12.074;2022-08-25T03:19:17;19.17;;;15.10;;
3627;SDS011;1830;49.000;12.074;2022-08-25T03:21:44;23.70;;;15.90;;
3627;SDS011;1830;49.000;12.074;2022-08-25T03:24:11;21.30;;;16.27;;
3627;SDS011;1830;49.000;12.074;2022-08-25T03:26:38;26.50;;;17.10;;
3627;SDS011;1830;49.000;12.074;2022-08-25T03:29:19;22.00;;;15.37;;
3627;SDS011;1830;49.000;12.074;2022-08-25T03:31:47;24.90;;;16.10;;
3627;SDS011;1830;49.000;12.074;2022-08-25T03:34:15;22.80;;;17.63;;
3627;SDS011;1830;49.000;12.074;2022-08-25T03:36:44;21.10;;;16.47;;
3627;SDS011;1830;49.000;12.074;2022-08-25T03:39:13;23.23;;;16.10;;
3627;SDS011;1830;49.000;12.074;2022-08-25T03:41:40;23.93;;;17.10;;
3627;SDS011;1830;49.000;12.074;2022-08-25T03:44:07;22.50;;;17.33;;
3627;SDS011;1830;49.000;12.074;2022-08-25T03:46:36;19.17;;;16.00;;
3627;SDS011;1830;49.000;12.074;2022-08-25T03:49:05;22.90;;;16.60;;
3627;SDS011;1830;49.000;12.074;2022-08-25T03:51:35;18.60;;;15.43;;
3627;SDS011;1830;49.000;12.074;2022-08-25T03:54:04;22.00;;;16.53;;
3627;SDS011;1830;49.000;12.074;2022-08-25T03:56:32;20.93;;;16.60;;
3627;SDS011;1830;49.000;12.074;2022-08-25T03:58:58;22.63;;;16.10;;
3627;SDS011;1830;49.000;12.074;2022-08-25T04:01:26;26.23;;;18.23;;
3627;SDS011;1830;49.000;12.074;2022-08-25T04:03:53;23.70;;;17.10;;
3627;SDS011;1830;49.000;12.074;2022-08-25T04:06:20;19.73;;;15.00;;
3627;SDS011;1830;49.000;12.074;2022-08-25T04:08:47;20.90;;;15.70;;
3627;SDS011;1830;49.000;12.074;2022-08-25T04:11:18;22.37;;;17.37;;
3627;SDS011;1830;49.000;12.074;2022-08-25T04:13:47;22.60;;;15.47;;
3627;SDS011;1830;49.000;12.074;2022-08-25T04:16:15;22.20;;;16.60;;
3627;SDS011;1830;49.000;12.074;2022-08-25T04:18:43;24.60;;;17.70;;
3627;SDS011;1830;49.000;12.074;2022-08-25T04:21:11;19.20;;;15.43;;
3627;SDS011;1830;49.000;12.074;2022-08-25T04:23:39;24.60;;;17.83;;
3627;SDS011;1830;49.000;12.074;2022-08-25T04:26:07;24.90;;;16.90;;
3627;SDS011;1830;49.000;12.074;2022-08-25T04:28:36;21.53;;;17.03;;
3627;SDS011;1830;49.000;12.074;2022-08-25T04:31:04;23.03;;;16.63;;
3627;SDS011;1830;49.000;12.074;2022-08-25T04:33:32;22.60;;;17.13;;
3627;SDS011;1830;49.000;12.074;2022-08-25T04:35:59;22.30;;;17.40;;
3627;SDS011;1830;49.000;12.074;2022-08-25T04:38:26;21.80;;;17.73;;
3627;SDS011;1830;49.000;12.074;2022-08-25T04:40:54;24.83;;;16.10;;
3627;SDS011;1830;49.000;12.074;2022-08-25T04:43:22;21.07;;;16.80;;
3627;SDS011;1830;49.000;12.074;2022-08-25T04:45:50;23.30;;;17.10;;
3627;SDS011;1830;49.000;12.074;2022-08-25T04:48:17;21.20;;;17.20;;
3627;SDS011;1830;49.000;12.074;2022-08-25T04:50:44;24.70;;;18.00;;
3627;SDS011;1830;49.000;12.074;2022-08-25T04:53:10;26.77;;;19.37;;
3627;SDS011;1830;49.000;12.074;2022-08-25T04:55:38;28.73;;;20.03;;
3627;SDS011;1830;49.000;12.074;2022-08-25T04:58:06;25.77;;;19.20;;
3627;SDS011;1830;49.000;12.074;2022-08-25T05:00:33;33.43;;;19.93;;
3627;SDS011;1830;49.000;12.074;2022-08-25T05:03:01;35.00;;;20.23;;
3627;SDS011;1830;49.000;12.074;2022-08-25T05:05:29;27.97;;;19.07;;
3627;SDS011;1830;49.000;12.074;2022-08-25T05:07:56;44.73;;;19.93;;
3627;SDS011;1830;49.000;12.074;2022-08-25T05:10:23;30.43;;;18.70;;
3627;SDS011;1830;49.000;12.074;2022-08-25T05:12:50;27.87;;;19.73;;
3627;SDS011;1830;49.000;12.074;2022-08-25T05:15:17;27.23;;;18.43;;
3627;SDS011;1830;49.000;12.074;2022-08-25T05:18:02;22.57;;;18.30;;
3627;SDS011;1830;49.000;12.074;2022-08-25T05:20:29;23.20;;;18.63;;
3627;SDS011;1830;49.000;12.074;2022-08-25T05:22:56;29.73;;;18.20;;
3627;SDS011;1830;49.000;12.074;2022-08-25T05:25:23;26.27;;;19.50;;
3627;SDS011;1830;49.000;12.074;2022-08-25T05:27:50;23.83;;;19.00;;
3627;SDS011;1830;49.000;12.074;2022-08-25T05:30:17;30.83;;;20.03;;
3627;SDS011;1830;49.000;12.074;2022-08-25T05:32:43;29.93;;;21.13;;
3627;SDS011;1830;49.000;12.074;2022-08-25T05:35:11;25.83;;;20.10;;
3627;SDS011;1830;49.000;12.074;2022-08-25T05:37:39;30.80;;;20.47;;
3627;SDS011;1830;49.000;12.074;2022-08-25T05:40:06;25.63;;;19.00;;
3627;SDS011;1830;49.000;12.074;2022-08-25T05:42:34;25.03;;;19.50;;
3627;SDS011;1830;49.000;12.074;2022-08-25T05:45:01;25.17;;;20.80;;
3627;SDS011;1830;49.000;12.074;2022-08-25T05:47:29;29.37;;;21.07;;
3627;SDS011;1830;49.000;12.074;2022-08-25T05:49:56;26.70;;;20.33;;
3627;SDS011;1830;49.000;12.074;2022-08-25T05:52:25;29.00;;;21.70;;
3627;SDS011;1830;49.000;12.074;2022-08-25T05:54:52;27.57;;;20.90;;
3627;SDS011;1830;49.000;12.074;2022-08-25T05:57:19;28.87;;;20.13;;
3627;SDS011;1830;49.000;12.074;2022-08-25T05:59:45;27.57;;;20.93;;
3627;SDS011;1830;49.000;12.074;2022-08-25T06:02:12;27.40;;;20.63;;
3627;SDS011;1830;49.000;12.074;2022-08-25T06:04:56;31.63;;;20.40;;
3627;SDS011;1830;49.000;12.074;2022-08-25T06:07:25;29.10;;;21.30;;
3627;SDS011;1830;49.000;12.074;2022-08-25T06:09:52;28.70;;;20.67;;
3627;SDS011;1830;49.000;12.074;2022-08-25T06:12:18;30.40;;;20.87;;
3627;SDS011;1830;49.000;12.074;2022-08-25T06:14:45;26.73;;;20.37;;
3627;SDS011;1830;49.000;12.074;2022-08-25T06:17:13;28.03;;;21.07;;
3627;SDS011;1830;49.000;12.074;2022-08-25T06:19:41;31.03;;;21.63;;
3627;SDS011;1830;49.000;12.074;2022-08-25T06:22:08;33.13;;;20.80;;
3627;SDS011;1830;49.000;12.074;2022-08-25T06:24:36;33.70;;;21.17;;
3627;SDS011;1830;49.000;12.074;2022-08-25T06:27:03;32.30;;;21.30;;
3627;SDS011;1830;49.000;12.074;2022-08-25T06:29:30;31.90;;;23.40;;
3627;SDS011;1830;49.000;12.074;2022-08-25T06:31:56;29.50;;;23.07;;
3627;SDS011;1830;49.000;12.074;2022-08-25T06:34:23;27.63;;;21.10;;
3627;SDS011;1830;49.000;12.074;2022-08-25T06:36:50;36.70;;;21.30;;
3627;SDS011;1830;49.000;12.074;2022-08-25T06:39:17;26.60;;;20.27;;
3627;SDS011;1830;49.000;12.074;2022-08-25T06:41:45;31.13;;;22.13;;
3627;SDS011;1830;49.000;12.074;2022-08-25T06:44:16;26.70;;;21.13;;
3627;SDS011;1830;49.000;12.074;2022-08-25T06:46:42;41.53;;;21.20;;
3627;SDS011;1830;49.000;12.074;2022-08-25T06:49:09;26.73;;;21.10;;
3627;SDS011;1830;49.000;12.074;2022-08-25T06:51:36;25.03;;;20.23;;
3627;SDS011;1830;49.000;12.074;2022-08-25T06:54:03;29.30;;;21.47;;
3627;SDS011;1830;49.000;12.074;2022-08-25T06:56:31;29.17;;;20.73;;
3627;SDS011;1830;49.000;12.074;2022-08-25T06:59:00;26.63;;;20.03;;
3627;SDS011;1830;49.000;12.074;2022-08-25T07:01:28;25.90;;;18.10;;
3627;SDS011;1830;49.000;12.074;2022-08-25T07:03:56;28.77;;;20.93;;
3627;SDS011;1830;49.000;12.074;2022-08-25T07:06:24;27.30;;;19.77;;
3627;SDS011;1830;49.000;12.074;2022-08-25T07:08:52;29.50;;;19.83;;
3627;SDS011;1830;49.000;12.074;2022-08-25T07:11:19;27.03;;;20.97;;
3627;SDS011;1830;49.000;12.074;2022-08-25T07:13:46;25.00;;;19.67;;
3627;SDS011;1830;49.000;12.074;2022-08-25T07:16:15;24.70;;;20.30;;
3627;SDS011;1830;49.000;12.074;2022-08-25T07:18:44;26.33;;;18.30;;
3627;SDS011;1830;49.000;12.074;2022-08-25T07:21:11;23.77;;;18.73;;
3627;SDS011;1830;49.000;12.074;2022-08-25T07:23:39;24.53;;;18.83;;
3627;SDS011;1830;49.000;12.074;2022-08-25T07:26:08;28.40;;;20.57;;
3627;SDS011;1830;49.000;12.074;2022-08-25T07:28:36;27.07;;;18.90;;
3627;SDS011;1830;49.000;12.074;2022-08-25T07:31:03;25.23;;;18.40;;
3627;SDS011;1830;49.000;12.074;2022-08-25T07:33:31;28.77;;;18.53;;
3627;SDS011;1830;49.000;12.074;2022-08-25T07:35:58;27.40;;;19.10;;
3627;SDS011;1830;49.000;12.074;2022-08-25T07:38:24;25.30;;;19.73;;
3627;SDS011;1830;49.000;12.074;2022-08-25T07:40:51;30.40;;;19.03;;
3627;SDS011;1830;49.000;12.074;2022-08-25T07:43:25;21.40;;;17.87;;
3627;SDS011;1830;49.000;12.074;2022-08-25T07:45:52;21.73;;;17.07;;
3627;SDS011;1830;49.000;12.074;2022-08-25T07:48:18;23.50;;;18.00;;
3627;SDS011;1830;49.000;12.074;2022-08-25T07:50:47;25.97;;;17.57;;
3627;SDS011;1830;49.000;12.074;2022-08-25T07:53:15;25.63;;;17.53;;
3627;SDS011;1830;49.000;12.074;2022-08-25T07:55:42;25.30;;;16.53;;
3627;SDS011;1830;49.000;12.074;2022-08-25T07:58:09;22.60;;;16.33;;
3627;SDS011;1830;49.000;12.074;2022-08-25T08:00:36;30.47;;;16.10;;
3627;SDS011;1830;49.000;12.074;2022-08-25T08:03:06;36.03;;;14.70;;
3627;SDS011;1830;49.000;12.074;2022-08-25T08:05:35;21.17;;;13.30;;
3627;SDS011;1830;49.000;12.074;2022-08-25T08:08:06;20.60;;;14.73;;
3627;SDS011;1830;49.000;12.074;2022-08-25T08:10:33;27.93;;;14.60;;
3627;SDS011;1830;49.000;12.074;2022-08-25T08:13:03;29.63;;;14.33;;
3627;SDS011;1830;49.000;12.074;2022-08-25T08:15:30;23.20;;;14.10;;
3627;SDS011;1830;49.000;12.074;2022-08-25T08:17:57;44.37;;;17.07;;
3627;SDS011;1830;49.000;12.074;2022-08-25T08:20:25;37.53;;;16.20;;
3627;SDS011;1830;49.000;12.074;2022-08-25T08:22:52;30.10;;;15.40;;
3627;SDS011;1830;49.000;12.074;2022-08-25T08:25:21;33.77;;;14.77;;
3627;SDS011;1830;49.000;12.074;2022-08-25T08:27:48;34.67;;;17.00;;
3627;SDS011;1830;49.000;12.074;2022-08-25T08:30:15;37.33;;;16.30;;
3627;SDS011;1830;49.000;12.074;2022-08-25T08:32:43;37.43;;;16.07;;
3627;SDS011;1830;49.000;12.074;2022-08-25T08:35:10;25.97;;;15.97;;
3627;SDS011;1830;49.000;12.074;2022-08-25T08:37:37;31.73;;;16.50;;
3627;SDS011;1830;49.000;12.074;2022-08-25T08:40:07;31.77;;;14.20;;
3627;SDS011;1830;49.000;12.074;2022-08-25T08:42:42;39.40;;;17.83;;
3627;SDS011;1830;49.000;12.074;2022-08-25T08:45:21;28.93;;;15.37;;
3627;SDS011;1830;49.000;12.074;2022-08-25T08:47:58;46.60;;;15.97;;
3627;SDS011;1830;49.000;12.074;2022-08-25T08:50:49;47.73;;;17.30;;
3627;SDS011;1830;49.000;12.074;2022-08-25T08:53:28;31.63;;;15.27;;
3627;SDS011;1830;49.000;12.074;2022-08-25T08:56:03;50.37;;;14.90;;
3627;SDS011;1830;49.000;12.074;2022-08-25T08:58:37;45.10;;;15.80;;
3627;SDS011;1830;49.000;12.074;2022-08-25T09:01:08;33.20;;;15.20;;
3627;SDS011;1830;49.000;12.074;2022-08-25T09:03:39;30.00;;;14.17;;
3627;SDS011;1830;49.000;12.074;2022-08-25T09:06:09;31.43;;;13.63;;
3627;SDS011;1830;49.000;12.074;2022-08-25T09:08:38;28.90;;;13.40;;
3627;SDS011;1830;49.000;12.074;2022-08-25T09:11:09;26.77;;;14.90;;
3627;SDS011;1830;49.000;12.074;2022-08-25T09:13:56;27.43;;;13.77;;
3627;SDS011;1830;49.000;12.074;2022-08-25T09:16:31;29.23;;;14.43;;
3627;SDS011;1830;49.000;12.074;2022-08-25T09:19:28;34.90;;;14.10;;
3627;SDS011;1830;49.000;12.074;2022-08-25T09:22:05;35.60;;;13.40;;
3627;SDS011;1830;49.000;12.074;2022-08-25T09:24:44;36.70;;;13.33;;
3627;SDS011;1830;49.000;12.074;2022-08-25T09:27:21;22.53;;;12.70;;
3627;SDS011;1830;49.000;12.074;2022-08-25T09:29:58;35.00;;;12.70;;
3627;SDS011;1830;49.000;12.074;2022-08-25T09:32:27;26.80;;;12.20;;
3627;SDS011;1830;49.000;12.074;2022-08-25T09:34:57;30.30;;;12.70;;
3627;SDS011;1830;49.000;12.074;2022-08-25T09:37:26;36.10;;;12.47;;
3627;SDS011;1830;49.000;12.074;2022-08-25T09:39:53;27.73;;;12.80;;
3627;SDS011;1830;49.000;12.074;2022-08-25T09:42:20;25.50;;;12.50;;
3627;SDS011;1830;49.000;12.074;2022-08-25T09:44:51;33.60;;;12.27;;
3627;SDS011;1830;49.000;12.074;2022-08-25T09:47:21;30.33;;;13.40;;
3627;SDS011;1830;49.000;12.074;2022-08-25T09:49:56;39.13;;;14.63;;
3627;SDS011;1830;49.000;12.074;2022-08-25T09:52:29;44.63;;;14.18;;
3627;SDS011;1830;49.000;12.074;2022-08-25T09:57:58;33.55;;;14.27;;
3627;SDS011;1830;49.000;12.074;2022-08-25T10:00:26;30.67;;;12.90;;
3627;SDS011;1830;49.000;12.074;2022-08-25T10:03:04;43.25;;;13.10;;
3627;SDS011;1830;49.000;12.074;2022-08-25T10:05:34;33.88;;;13.23;;
3627;SDS011;1830;49.000;12.074;2022-08-25T10:08:10;46.08;;;14.00;;
3627;SDS011;1830;49.000;12.074;2022-08-25T10:10:39;49.97;;;14.35;;
3627;SDS011;1830;49.000;12.074;2022-08-25T10:13:11;43.22;;;14.48;;
3627;SDS011;1830;49.000;12.074;2022-08-25T10:15:40;34.60;;;13.00;;
3627;SDS011;1830;49.000;12.074;2022-08-25T10:18:22;39.58;;;13.98;;
3627;SDS011;1830;49.000;12.074;2022-08-25T10:21:00;39.25;;;12.32;;
3627;SDS011;1830;49.000;12.074;2022-08-25T10:23:29;34.15;;;13.07;;
3627;SDS011;1830;49.000;12.074;2022-08-25T10:25:57;30.92;;;12.88;;
3627;SDS011;1830;49.000;12.074;2022-08-25T10:28:30;36.60;;;13.40;;
3627;SDS011;1830;49.000;12.074;2022-08-25T10:31:03;30.13;;;13.15;;
3627;SDS011;1830;49.000;12.074;2022-08-25T10:33:41;28.65;;;12.65;;
3627;SDS011;1830;49.000;12.074;2022-08-25T10:36:16;39.63;;;14.07;;
3627;SDS011;1830;49.000;12.074;2022-08-25T10:38:48;19.67;;;12.00;;
3627;SDS011;1830;49.000;12.074;2022-08-25T10:41:29;30.27;;;13.15;;
3627;SDS011;1830;49.000;12.074;2022-08-25T10:44:17;18.50;;;13.02;;
3627;SDS011;1830;49.000;12.074;2022-08-25T10:47:15;22.00;;;12.55;;
3627;SDS011;1830;49.000;12.074;2022-08-25T10:50:08;21.58;;;13.73;;
3627;SDS011;1830;49.000;12.074;2022-08-25T10:52:48;23.02;;;12.95;;
3627;SDS011;1830;49.000;12.074;2022-08-25T10:55:28;19.50;;;11.73;;
3627;SDS011;1830;49.000;12.074;2022-08-25T10:58:03;21.05;;;13.45;;
3627;SDS011;1830;49.000;12.074;2022-08-25T11:00:47;23.77;;;12.53;;
3627;SDS011;1830;49.000;12.074;2022-08-25T11:03:28;23.38;;;14.65;;
3627;SDS011;1830;49.000;12.074;2022-08-25T11:06:04;22.23;;;13.32;;
3627;SDS011;1830;49.000;12.074;2022-08-25T11:08:35;34.15;;;14.55;;
3627;SDS011;1830;49.000;12.074;2022-08-25T11:11:06;20.60;;;13.07;;
3627;SDS011;1830;49.000;12.074;2022-08-25T11:13:42;23.33;;;12.73;;
3627;SDS011;1830;49.000;12.074;2022-08-25T11:16:13;20.42;;;12.10;;
3627;SDS011;1830;49.000;12.074;2022-08-25T11:18:45;23.27;;;12.88;;
3627;SDS011;1830;49.000;12.074;2022-08-25T11:21:18;18.65;;;13.10;;
3627;SDS011;1830;49.000;12.074;2022-08-25T11:23:49;26.27;;;14.15;;
3627;SDS011;1830;49.000;12.074;2022-08-25T11:26:21;23.80;;;13.52;;
3627;SDS011;1830;49.000;12.074;2022-08-25T11:28:56;20.98;;;11.55;;
3627;SDS011;1830;49.000;12.074;2022-08-25T11:31:26;32.90;;;13.27;;
3627;SDS011;1830;49.000;12.074;2022-08-25T11:33:54;81.22;;;13.85;;
3627;SDS011;1830;49.000;12.074;2022-08-25T11:36:26;86.10;;;14.15;;
3627;SDS011;1830;49.000;12.074;2022-08-25T11:38:58;25.75;;;13.32;;
3627;SDS011;1830;49.000;12.074;2022-08-25T11:41:36;22.25;;;11.23;;
3627;SDS011;1830;49.000;12.074;2022-08-25T11:44:16;20.02;;;10.90;;
3627;SDS011;1830;49.000;12.074;2022-08-25T11:47:03;28.08;;;12.30;;
3627;SDS011;1830;49.000;12.074;2022-08-25T11:49:46;28.98;;;12.15;;
3627;SDS011;1830;49.000;12.074;2022-08-25T11:55:14;36.15;;;12.77;;
3627;SDS011;1830;49.000;12.074;2022-08-25T11:57:43;35.60;;;11.50;;
3627;SDS011;1830;49.000;12.074;2022-08-25T12:00:12;32.58;;;11.95;;
3627;SDS011;1830;49.000;12.074;2022-08-25T12:02:42;33.85;;;11.63;;
3627;SDS011;1830;49.000;12.074;2022-08-25T12:08:16;37.47;;;11.52;;
3627;SDS011;1830;49.000;12.074;2022-08-25T12:14:40;36.35;;;12.43;;
3627;SDS011;1830;49.000;12.074;2022-08-25T12:17:16;37.97;;;12.27;;
3627;SDS011;1830;49.000;12.074;2022-08-25T12:19:55;37.13;;;13.35;;
3627;SDS011;1830;49.000;12.074;2022-08-25T12:22:40;43.92;;;12.70;;
3627;SDS011;1830;49.000;12.074;2022-08-25T12:25:19;34.10;;;11.50;;
3627;SDS011;1830;49.000;12.074;2022-08-25T12:28:00;38.47;;;12.48;;
3627;SDS011;1830;49.000;12.074;2022-08-25T12:30:37;36.05;;;12.80;;
3627;SDS011;1830;49.000;12.074;2022-08-25T12:33:10;33.15;;;11.77;;
3627;SDS011;1830;49.000;12.074;2022-08-25T12:35:49;34.15;;;12.05;;
3627;SDS011;1830;49.000;12.074;2022-08-25T12:38:26;38.30;;;11.82;;
3627;SDS011;1830;49.000;12.074;2022-08-25T12:40:57;48.70;;;13.00;;
3627;SDS011;1830;49.000;12.074;2022-08-25T12:43:29;35.40;;;12.65;;
3627;SDS011;1830;49.000;12.074;2022-08-25T12:49:00;36.03;;;13.25;;
3627;SDS011;1830;49.000;12.074;2022-08-25T12:51:39;28.15;;;10.98;;
3627;SDS011;1830;49.000;12.074;2022-08-25T12:54:15;45.10;;;12.40;;
3627;SDS011;1830;49.000;12.074;2022-08-25T12:56:46;27.50;;;11.70;;
3627;SDS011;1830;49.000;12.074;2022-08-25T12:59:20;47.50;;;12.43;;
3627;SDS011;1830;49.000;12.074;2022-08-25T13:05:12;32.10;;;11.10;;
3627;SDS011;1830;49.000;12.074;2022-08-25T13:07:56;39.67;;;11.32;;
3627;SDS011;1830;49.000;12.074;2022-08-25T13:10:43;49.65;;;11.70;;
3627;SDS011;1830;49.000;12.074;2022-08-25T13:13:15;35.35;;;11.05;;
3627;SDS011;1830;49.000;12.074;2022-08-25T13:15:56;34.30;;;11.88;;
3627;SDS011;1830;49.000;12.074;2022-08-25T13:18:25;37.78;;;11.77;;
3627;SDS011;1830;49.000;12.074;2022-08-25T13:20:54;38.67;;;11.38;;
3627;SDS011;1830;49.000;12.074;2022-08-25T13:23:29;45.65;;;11.52;;
3627;SDS011;1830;49.000;12.074;2022-08-25T13:26:00;30.90;;;11.25;;
3627;SDS011;1830;49.000;12.074;2022-08-25T13:28:28;35.85;;;12.43;;
3627;SDS011;1830;49.000;12.074;2022-08-25T13:31:06;40.75;;;12.30;;
3627;SDS011;1830;49.000;12.074;2022-08-25T13:33:35;47.20;;;11.88;;
3627;SDS011;1830;49.000;12.074;2022-08-25T13:36:02;36.28;;;12.02;;
3627;SDS011;1830;49.000;12.074;2022-08-25T13:38:47;45.10;;;11.85;;
3627;SDS011;1830;49.000;12.074;2022-08-25T13:41:18;47.40;;;11.98;;
3627;SDS011;1830;49.000;12.074;2022-08-25T13:43:56;37.72;;;12.52;;
3627;SDS011;1830;49.000;12.074;2022-08-25T13:46:24;45.83;;;12.82;;
3627;SDS011;1830;49.000;12.074;2022-08-25T13:49:00;33.45;;;11.15;;
3627;SDS011;1830;49.000;12.074;2022-08-25T13:51:29;32.20;;;12.35;;
3627;SDS011;1830;49.000;12.074;2022-08-25T13:53:57;40.60;;;11.52;;
3627;SDS011;1830;49.000;12.074;2022-08-25T13:56:30;33.25;;;12.55;;
3627;SDS011;1830;49.000;12.074;2022-08-25T13:58:58;34.67;;;11.63;;
3627;SDS011;1830;49.000;12.074;2022-08-25T14:01:29;35.97;;;11.15;;
3627;SDS011;1830;49.000;12.074;2022-08-25T14:09:38;41.42;;;13.25;;
3627;SDS011;1830;49.000;12.074;2022-08-25T14:12:06;40.35;;;11.90;;
3627;SDS011;1830;49.000;12.074;2022-08-25T14:14:33;38.15;;;12.77;;
3627;SDS011;1830;49.000;12.074;2022-08-25T14:17:03;29.58;;;12.70;;
3627;SDS011;1830;49.000;12.074;2022-08-25T14:19:31;44.00;;;10.75;;
3627;SDS011;1830;49.000;12.074;2022-08-25T14:21:59;51.90;;;11.82;;
3627;SDS011;1830;49.000;12.074;2022-08-25T14:24:27;41.10;;;12.82;;
3627;SDS011;1830;49.000;12.074;2022-08-25T14:26:58;31.20;;;11.30;;
3627;SDS011;1830;49.000;12.074;2022-08-25T14:29:26;41.45;;;11.05;;
3627;SDS011;1830;49.000;12.074;2022-08-25T14:31:53;29.13;;;11.32;;
3627;SDS011;1830;49.000;12.074;2022-08-25T14:34:23;38.25;;;11.80;;
3627;SDS011;1830;49.000;12.074;2022-08-25T14:36:52;32.55;;;11.02;;
3627;SDS011;1830;49.000;12.074;2022-08-25T14:39:19;29.88;;;12.13;;
3627;SDS011;1830;49.000;12.074;2022-08-25T14:41:46;35.50;;;12.32;;
3627;SDS011;1830;49.000;12.074;2022-08-25T14:44:14;40.45;;;11.48;;
3627;SDS011;1830;49.000;12.074;2022-08-25T14:46:43;48.90;;;12.23;;
3627;SDS011;1830;49.000;12.074;2022-08-25T14:49:15;46.08;;;14.95;;
3627;SDS011;1830;49.000;12.074;2022-08-25T14:51:46;37.33;;;10.23;;
3627;SDS011;1830;49.000;12.074;2022-08-25T14:54:14;29.20;;;10.90;;
3627;SDS011;1830;49.000;12.074;2022-08-25T14:56:42;29.60;;;11.88;;
3627;SDS011;1830;49.000;12.074;2022-08-25T14:59:10;36.13;;;11.68;;
3627;SDS011;1830;49.000;12.074;2022-08-25T15:01:37;49.15;;;11.55;;
3627;SDS011;1830;49.000;12.074;2022-08-25T15:04:05;40.88;;;11.63;;
3627;SDS011;1830;49.000;12.074;2022-08-25T15:06:34;32.33;;;11.25;;
3627;SDS011;1830;49.000;12.074;2022-08-25T15:09:03;29.67;;;10.30;;
3627;SDS011;1830;49.000;12.074;2022-08-25T15:11:32;36.22;;;11.55;;
3627;SDS011;1830;49.000;12.074;2022-08-25T15:14:00;36.75;;;11.05;;
3627;SDS011;1830;49.000;12.074;2022-08-25T15:16:29;24.55;;;10.07;;